sensor_id;sensor_type;location;lat;lon;timestamp;pressure;altitude;pressure_sealevel;temperature;humidity
69737;BME280;64476;55.004;73.342;2023-01-27T00:01:16;100817.00;;;-9.77;55.64
69737;BME280;64476;55.004;73.342;2023-01-27T00:06:17;100850.69;;;-9.49;55.60
69737;BME280;64476;55.004;73.342;2023-01-27T00:11:19;100861.63;;;-9.34;55.74
69737;BME280;64476;55.004;73.342;2023-01-27T00:16:39;100830.47;;;-9.55;55.14
69737;BME280;64476;55.004;73.342;2023-01-27T00:21:50;100821.19;;;-9.51;54.87
69737;BME280;64476;55.004;73.342;2023-01-27T00:27:08;100858.22;;;-9.32;55.44
69737;BME280;64476;55.004;73.342;2023-01-27T00:32:12;100837.19;;;-9.48;55.45
69737;BME280;64476;55.004;73.342;2023-01-27T00:37:33;100800.97;;;-9.48;54.85
69737;BME280;64476;55.004;73.342;2023-01-27T00:42:35;100818.63;;;-9.36;55.40
69737;BME280;64476;55.004;73.342;2023-01-27T00:47:37;100799.25;;;-9.31;54.69
69737;BME280;64476;55.004;73.342;2023-01-27T00:52:44;100855.66;;;-9.01;54.40
69737;BME280;64476;55.004;73.342;2023-01-27T00:57:46;100804.28;;;-9.26;54.85
69737;BME280;64476;55.004;73.342;2023-01-27T01:02:48;100852.25;;;-8.98;54.75
69737;BME280;64476;55.004;73.342;2023-01-27T01:07:50;100758.00;;;-9.56;54.69
69737;BME280;64476;55.004;73.342;2023-01-27T01:12:51;100875.91;;;-8.98;55.05
69737;BME280;64476;55.004;73.342;2023-01-27T01:17:53;100865.81;;;-9.18;55.09
69737;BME280;64476;55.004;73.342;2023-01-27T01:22:56;100892.78;;;-9.08;54.77
69737;BME280;64476;55.004;73.342;2023-01-27T01:27:59;100886.84;;;-8.99;54.45
69737;BME280;64476;55.004;73.342;2023-01-27T01:33:02;100818.63;;;-9.30;54.82
69737;BME280;64476;55.004;73.342;2023-01-27T01:38:14;100757.19;;;-9.67;54.75
69737;BME280;64476;55.004;73.342;2023-01-27T01:43:26;100904.47;;;-8.65;54.48
69737;BME280;64476;55.004;73.342;2023-01-27T01:48:36;100908.75;;;-8.81;54.55
69737;BME280;64476;55.004;73.342;2023-01-27T01:53:55;100912.97;;;-8.76;54.54
69737;BME280;64476;55.004;73.342;2023-01-27T01:59:27;100851.47;;;-9.16;54.57
69737;BME280;64476;55.004;73.342;2023-01-27T02:04:36;100855.66;;;-8.96;54.46
69737;BME280;64476;55.004;73.342;2023-01-27T02:09:50;100918.03;;;-8.76;54.17
69737;BME280;64476;55.004;73.342;2023-01-27T02:15:04;100841.34;;;-9.10;54.04
69737;BME280;64476;55.004;73.342;2023-01-27T02:30:41;100934.84;;;-8.65;53.97
69737;BME280;64476;55.004;73.342;2023-01-27T02:36:08;100930.69;;;-8.76;54.05
69737;BME280;64476;55.004;73.342;2023-01-27T02:41:22;100912.97;;;-8.79;53.67
69737;BME280;64476;55.004;73.342;2023-01-27T02:46:27;100939.09;;;-8.61;54.03
69737;BME280;64476;55.004;73.342;2023-01-27T02:51:30;100955.94;;;-8.63;54.16
69737;BME280;64476;55.004;73.342;2023-01-27T02:56:34;100721.81;;;-9.71;54.21
69737;BME280;64476;55.004;73.342;2023-01-27T03:01:35;100876.38;;;-8.18;52.76
69737;BME280;64476;55.004;73.342;2023-01-27T03:06:37;100878.47;;;-7.55;52.23
69737;BME280;64476;55.004;73.342;2023-01-27T03:11:52;100879.28;;;-7.48;52.03
69737;BME280;64476;55.004;73.342;2023-01-27T03:17:12;100929.22;;;-7.57;51.64
69737;BME280;64476;55.004;73.342;2023-01-27T03:22:32;100908.38;;;-8.00;52.38
69737;BME280;64476;55.004;73.342;2023-01-27T03:27:35;100960.63;;;-7.73;52.77
69737;BME280;64476;55.004;73.342;2023-01-27T03:33:07;100816.72;;;-8.69;52.52
69737;BME280;64476;55.004;73.342;2023-01-27T03:38:24;100952.34;;;-8.07;52.61
69737;BME280;64476;55.004;73.342;2023-01-27T03:43:45;100835.31;;;-8.73;52.60
69737;BME280;64476;55.004;73.342;2023-01-27T03:49:10;100890.03;;;-8.43;53.16
69737;BME280;64476;55.004;73.342;2023-01-27T03:54:22;100959.94;;;-8.06;52.92
69737;BME280;64476;55.004;73.342;2023-01-27T03:59:23;100968.44;;;-8.16;53.13
69737;BME280;64476;55.004;73.342;2023-01-27T04:04:29;100936.34;;;-8.21;53.17
69737;BME280;64476;55.004;73.342;2023-01-27T04:15:22;100988.56;;;-7.88;52.96
69737;BME280;64476;55.004;73.342;2023-01-27T04:20:24;100995.25;;;-7.72;52.65
69737;BME280;64476;55.004;73.342;2023-01-27T04:25:25;101007.88;;;-7.64;52.36
69737;BME280;64476;55.004;73.342;2023-01-27T04:30:27;100974.91;;;-7.66;52.32
69737;BME280;64476;55.004;73.342;2023-01-27T04:35:29;100974.94;;;-7.70;52.37
69737;BME280;64476;55.004;73.342;2023-01-27T04:40:30;100963.16;;;-7.76;52.34
69737;BME280;64476;55.004;73.342;2023-01-27T04:45:50;101002.78;;;-7.57;52.24
69737;BME280;64476;55.004;73.342;2023-01-27T04:50:57;101013.63;;;-7.35;52.44
69737;BME280;64476;55.004;73.342;2023-01-27T05:01:37;101037.13;;;-7.10;51.96
69737;BME280;64476;55.004;73.342;2023-01-27T05:06:49;101027.84;;;-7.15;52.27
69737;BME280;64476;55.004;73.342;2023-01-27T05:11:50;101042.22;;;-7.13;52.94
69737;BME280;64476;55.004;73.342;2023-01-27T05:16:56;101046.69;;;-7.47;53.83
69737;BME280;64476;55.004;73.342;2023-01-27T05:21:59;100981.91;;;-8.11;54.36
69737;BME280;64476;55.004;73.342;2023-01-27T05:27:11;101011.41;;;-7.91;54.50
69737;BME280;64476;55.004;73.342;2023-01-27T05:32:13;101041.66;;;-7.55;54.03
69737;BME280;64476;55.004;73.342;2023-01-27T05:37:14;101031.50;;;-7.56;53.71
69737;BME280;64476;55.004;73.342;2023-01-27T05:42:16;101044.00;;;-7.27;53.14
69737;BME280;64476;55.004;73.342;2023-01-27T05:47:18;100948.81;;;-7.80;52.77
69737;BME280;64476;55.004;73.342;2023-01-27T05:52:19;101034.81;;;-7.42;52.69
69737;BME280;64476;55.004;73.342;2023-01-27T05:57:21;101057.53;;;-7.26;52.41
69737;BME280;64476;55.004;73.342;2023-01-27T06:02:22;101078.59;;;-7.12;52.35
69737;BME280;64476;55.004;73.342;2023-01-27T06:07:24;101055.66;;;-6.97;52.45
69737;BME280;64476;55.004;73.342;2023-01-27T06:12:26;101048.13;;;-7.06;51.89
69737;BME280;64476;55.004;73.342;2023-01-27T06:17:29;101043.13;;;-7.20;51.63
69737;BME280;64476;55.004;73.342;2023-01-27T06:22:34;101061.06;;;-7.52;52.43
69737;BME280;64476;55.004;73.342;2023-01-27T06:27:35;101045.13;;;-7.75;53.20
69737;BME280;64476;55.004;73.342;2023-01-27T06:32:38;101046.72;;;-7.59;53.17
69737;BME280;64476;55.004;73.342;2023-01-27T06:43:00;101056.75;;;-7.35;53.37
69737;BME280;64476;55.004;73.342;2023-01-27T06:48:44;101066.94;;;-7.45;53.68
69737;BME280;64476;55.004;73.342;2023-01-27T06:53:46;101044.28;;;-7.73;54.27
69737;BME280;64476;55.004;73.342;2023-01-27T06:58:47;101078.09;;;-7.72;54.61
69737;BME280;64476;55.004;73.342;2023-01-27T07:04:00;100998.00;;;-8.22;55.07
69737;BME280;64476;55.004;73.342;2023-01-27T07:09:02;101067.94;;;-7.75;54.72
69737;BME280;64476;55.004;73.342;2023-01-27T07:14:03;101063.69;;;-7.70;55.10
69737;BME280;64476;55.004;73.342;2023-01-27T07:19:21;100950.81;;;-8.43;55.73
69737;BME280;64476;55.004;73.342;2023-01-27T07:24:22;101076.47;;;-7.96;56.30
69737;BME280;64476;55.004;73.342;2023-01-27T07:29:29;101078.16;;;-8.00;55.91
69737;BME280;64476;55.004;73.342;2023-01-27T07:34:35;101084.00;;;-7.78;55.70
69737;BME280;64476;55.004;73.342;2023-01-27T07:40:20;101035.16;;;-8.32;56.31
69737;BME280;64476;55.004;73.342;2023-01-27T07:45:32;101108.56;;;-7.97;56.31
69737;BME280;64476;55.004;73.342;2023-01-27T07:50:35;101059.63;;;-8.22;56.93
69737;BME280;64476;55.004;73.342;2023-01-27T07:55:37;101100.94;;;-7.89;56.71
69737;BME280;64476;55.004;73.342;2023-01-27T08:01:11;101118.56;;;-7.56;57.46
69737;BME280;64476;55.004;73.342;2023-01-27T08:06:17;100945.81;;;-8.69;56.92
69737;BME280;64476;55.004;73.342;2023-01-27T08:11:18;101107.69;;;-7.82;57.42
69737;BME280;64476;55.004;73.342;2023-01-27T08:16:24;101054.47;;;-7.84;56.43
69737;BME280;64476;55.004;73.342;2023-01-27T08:21:26;101102.41;;;-7.33;56.16
69737;BME280;64476;55.004;73.342;2023-01-27T08:26:33;101104.09;;;-7.34;57.00
69737;BME280;64476;55.004;73.342;2023-01-27T08:31:39;101107.50;;;-7.41;56.81
69737;BME280;64476;55.004;73.342;2023-01-27T08:36:47;101094.81;;;-7.35;57.08
69737;BME280;64476;55.004;73.342;2023-01-27T08:41:54;101099.78;;;-7.18;56.88
69737;BME280;64476;55.004;73.342;2023-01-27T08:47:05;101110.56;;;-6.85;56.87
69737;BME280;64476;55.004;73.342;2023-01-27T08:52:07;101054.97;;;-7.22;56.98
69737;BME280;64476;55.004;73.342;2023-01-27T08:57:09;101134.31;;;-6.92;57.26
69737;BME280;64476;55.004;73.342;2023-01-27T09:02:12;101123.50;;;-7.20;57.91
69737;BME280;64476;55.004;73.342;2023-01-27T09:07:14;101045.13;;;-7.69;58.18
69737;BME280;64476;55.004;73.342;2023-01-27T09:12:16;101069.50;;;-7.48;58.35
69737;BME280;64476;55.004;73.342;2023-01-27T09:17:18;101110.75;;;-7.13;58.47
69737;BME280;64476;55.004;73.342;2023-01-27T09:22:24;101114.81;;;-6.89;57.99
69737;BME280;64476;55.004;73.342;2023-01-27T09:27:58;101110.75;;;-7.16;60.34
69737;BME280;64476;55.004;73.342;2023-01-27T09:33:00;101061.06;;;-7.52;59.58
69737;BME280;64476;55.004;73.342;2023-01-27T09:38:04;101011.41;;;-7.99;59.56
69737;BME280;64476;55.004;73.342;2023-01-27T09:43:25;101077.03;;;-7.35;59.81
69737;BME280;64476;55.004;73.342;2023-01-27T09:54:33;101087.72;;;-6.85;58.43
69737;BME280;64476;55.004;73.342;2023-01-27T10:27:17;101135.69;;;-6.48;56.33
69737;BME280;64476;55.004;73.342;2023-01-27T10:32:26;101128.31;;;-6.79;55.58
69737;BME280;64476;55.004;73.342;2023-01-27T10:42:53;101147.94;;;-7.06;55.56
69737;BME280;64476;55.004;73.342;2023-01-27T10:48:20;101157.28;;;-7.15;56.14
69737;BME280;64476;55.004;73.342;2023-01-27T10:59:15;101146.16;;;-6.96;54.88
69737;BME280;64476;55.004;73.342;2023-01-27T11:04:37;101178.28;;;-6.81;55.00
69737;BME280;64476;55.004;73.342;2023-01-27T11:10:06;101173.28;;;-7.01;54.81
69737;BME280;64476;55.004;73.342;2023-01-27T11:16:18;101139.53;;;-7.18;55.14
69737;BME280;64476;55.004;73.342;2023-01-27T11:21:26;101173.25;;;-6.96;55.12
69737;BME280;64476;55.004;73.342;2023-01-27T11:26:42;101162.38;;;-7.14;55.34
69737;BME280;64476;55.004;73.342;2023-01-27T11:37:30;101118.53;;;-7.48;55.97
69737;BME280;64476;55.004;73.342;2023-01-27T11:42:34;101169.16;;;-7.20;55.85
69737;BME280;64476;55.004;73.342;2023-01-27T11:47:37;101176.81;;;-7.31;56.92
69737;BME280;64476;55.004;73.342;2023-01-27T11:52:58;101122.84;;;-7.67;57.33
69737;BME280;64476;55.004;73.342;2023-01-27T11:58:14;101129.59;;;-7.61;57.22
69737;BME280;64476;55.004;73.342;2023-01-27T12:03:25;101123.69;;;-7.66;57.01
69737;BME280;64476;55.004;73.342;2023-01-27T12:08:42;101164.13;;;-7.25;56.89
69737;BME280;64476;55.004;73.342;2023-01-27T12:13:58;101171.59;;;-7.00;57.25
69737;BME280;64476;55.004;73.342;2023-01-27T12:24:47;101110.81;;;-7.20;57.16
69737;BME280;64476;55.004;73.342;2023-01-27T12:29:51;101163.91;;;-6.90;57.16
69737;BME280;64476;55.004;73.342;2023-01-27T12:34:55;101156.31;;;-6.93;57.10
69737;BME280;64476;55.004;73.342;2023-01-27T12:40:00;101120.97;;;-7.30;57.76
69737;BME280;64476;55.004;73.342;2023-01-27T12:50:54;101135.47;;;-7.47;58.95
69737;BME280;64476;55.004;73.342;2023-01-27T12:56:11;101170.91;;;-7.28;59.20
69737;BME280;64476;55.004;73.342;2023-01-27T13:11:43;101119.44;;;-7.61;58.49
69737;BME280;64476;55.004;73.342;2023-01-27T13:16:54;101128.72;;;-7.54;58.32
69737;BME280;64476;55.004;73.342;2023-01-27T13:21:56;101106.81;;;-7.78;58.52
69737;BME280;64476;55.004;73.342;2023-01-27T13:27:13;101054.50;;;-7.99;58.44
69737;BME280;64476;55.004;73.342;2023-01-27T13:32:25;101170.03;;;-7.24;58.34
69737;BME280;64476;55.004;73.342;2023-01-27T13:37:32;101186.78;;;-6.93;58.48
69737;BME280;64476;55.004;73.342;2023-01-27T13:42:41;101196.84;;;-6.79;57.65
69737;BME280;64476;55.004;73.342;2023-01-27T13:48:23;101179.88;;;-6.66;57.58
69737;BME280;64476;55.004;73.342;2023-01-27T13:53:27;101135.97;;;-6.87;57.51
69737;BME280;64476;55.004;73.342;2023-01-27T14:10:03;101192.53;;;-6.62;57.45
69737;BME280;64476;55.004;73.342;2023-01-27T14:15:35;101177.31;;;-6.68;57.32
69737;BME280;64476;55.004;73.342;2023-01-27T14:37:32;101157.91;;;-6.73;58.17
69737;BME280;64476;55.004;73.342;2023-01-27T15:00:02;101028.81;;;-7.28;58.40
69737;BME280;64476;55.004;73.342;2023-01-27T15:05:51;101157.63;;;-6.38;57.61
69737;BME280;64476;55.004;73.342;2023-01-27T15:16:57;101114.44;;;-6.41;57.54
69737;BME280;64476;55.004;73.342;2023-01-27T15:22:26;101150.63;;;-6.10;57.88
69737;BME280;64476;55.004;73.342;2023-01-27T15:27:36;101080.69;;;-6.56;57.80
69737;BME280;64476;55.004;73.342;2023-01-27T15:49:27;101152.34;;;-6.15;57.82
69737;BME280;64476;55.004;73.342;2023-01-27T15:54:31;100999.94;;;-7.15;58.04
69737;BME280;64476;55.004;73.342;2023-01-27T15:59:46;101096.78;;;-6.53;58.73
69737;BME280;64476;55.004;73.342;2023-01-27T16:05:36;101121.91;;;-6.21;57.76
69737;BME280;64476;55.004;73.342;2023-01-27T16:10:38;101046.06;;;-6.63;57.96
69737;BME280;64476;55.004;73.342;2023-01-27T16:21:59;101107.31;;;-6.02;57.58
69737;BME280;64476;55.004;73.342;2023-01-27T16:32:35;101004.16;;;-6.23;57.45
69737;BME280;64476;55.004;73.342;2023-01-27T16:44:05;101103.53;;;-5.71;57.43
69737;BME280;64476;55.004;73.342;2023-01-27T17:00:16;101081.66;;;-5.84;57.71
69737;BME280;64476;55.004;73.342;2023-01-27T17:05:27;101027.84;;;-6.20;58.09
69737;BME280;64476;55.004;73.342;2023-01-27T17:15:51;101068.03;;;-5.80;58.61
69737;BME280;64476;55.004;73.342;2023-01-27T17:20:54;100990.44;;;-6.07;57.94
69737;BME280;64476;55.004;73.342;2023-01-27T17:26:13;101029.03;;;-5.77;57.81
69737;BME280;64476;55.004;73.342;2023-01-27T17:31:30;101029.00;;;-5.76;57.66
69737;BME280;64476;55.004;73.342;2023-01-27T17:42:19;101019.72;;;-5.80;57.91
69737;BME280;64476;55.004;73.342;2023-01-27T17:47:23;101050.84;;;-5.61;58.23
69737;BME280;64476;55.004;73.342;2023-01-27T17:52:41;101051.69;;;-5.59;58.60
69737;BME280;64476;55.004;73.342;2023-01-27T17:58:17;101078.84;;;-5.60;59.01
69737;BME280;64476;55.004;73.342;2023-01-27T18:01:21;101065.25;;;-5.59;58.58
69737;BME280;64476;55.004;73.342;2023-01-27T18:04:23;101072.69;;;-5.46;59.20
69737;BME280;64476;55.004;73.342;2023-01-27T18:07:26;101069.38;;;-5.51;59.13
69737;BME280;64476;55.004;73.342;2023-01-27T18:13:37;101020.53;;;-5.76;59.40
69737;BME280;64476;55.004;73.342;2023-01-27T18:20:03;101020.38;;;-5.67;58.93
69737;BME280;64476;55.004;73.342;2023-01-27T18:23:13;101037.06;;;-5.45;59.09
69737;BME280;64476;55.004;73.342;2023-01-27T18:26:38;101053.03;;;-5.33;59.91
69737;BME280;64476;55.004;73.342;2023-01-27T18:29:50;101026.94;;;-5.49;59.58
69737;BME280;64476;55.004;73.342;2023-01-27T18:33:02;101064.78;;;-5.25;59.57
69737;BME280;64476;55.004;73.342;2023-01-27T18:36:18;101057.97;;;-5.24;59.82
69737;BME280;64476;55.004;73.342;2023-01-27T18:42:29;101055.31;;;-5.15;60.04
69737;BME280;64476;55.004;73.342;2023-01-27T18:45:36;101053.63;;;-5.16;59.74
69737;BME280;64476;55.004;73.342;2023-01-27T18:48:38;101043.66;;;-5.31;60.20
69737;BME280;64476;55.004;73.342;2023-01-27T18:51:39;101010.75;;;-5.45;60.26
69737;BME280;64476;55.004;73.342;2023-01-27T18:54:51;100989.63;;;-5.50;60.50
69737;BME280;64476;55.004;73.342;2023-01-27T18:57:58;101009.97;;;-5.49;60.40
69737;BME280;64476;55.004;73.342;2023-01-27T19:01:09;101060.50;;;-5.21;60.94
69737;BME280;64476;55.004;73.342;2023-01-27T19:04:24;101033.63;;;-5.41;60.39
69737;BME280;64476;55.004;73.342;2023-01-27T19:07:25;101021.03;;;-5.53;60.86
69737;BME280;64476;55.004;73.342;2023-01-27T19:10:30;101057.25;;;-5.32;60.76
69737;BME280;64476;55.004;73.342;2023-01-27T19:13:38;101032.06;;;-5.52;60.82
69737;BME280;64476;55.004;73.342;2023-01-27T19:16:39;101033.59;;;-5.39;60.82
69737;BME280;64476;55.004;73.342;2023-01-27T19:19:51;101046.22;;;-5.33;61.09
69737;BME280;64476;55.004;73.342;2023-01-27T19:22:58;100998.94;;;-5.48;60.99
69737;BME280;64476;55.004;73.342;2023-01-27T19:26:01;101035.88;;;-5.21;61.07
69737;BME280;64476;55.004;73.342;2023-01-27T19:29:03;100995.50;;;-5.45;60.90
69737;BME280;64476;55.004;73.342;2023-01-27T19:32:05;100990.56;;;-5.56;61.06
69737;BME280;64476;55.004;73.342;2023-01-27T19:35:17;101030.88;;;-5.28;60.89
69737;BME280;64476;55.004;73.342;2023-01-27T19:38:29;101044.59;;;-5.39;61.09
69737;BME280;64476;55.004;73.342;2023-01-27T19:41:32;100984.03;;;-5.74;61.17
69737;BME280;64476;55.004;73.342;2023-01-27T19:44:33;100928.72;;;-6.18;61.80
69737;BME280;64476;55.004;73.342;2023-01-27T19:47:35;100929.56;;;-6.19;61.64
69737;BME280;64476;55.004;73.342;2023-01-27T19:50:37;101028.09;;;-5.72;62.09
69737;BME280;64476;55.004;73.342;2023-01-27T19:53:44;101001.94;;;-5.83;61.75
69737;BME280;64476;55.004;73.342;2023-01-27T19:57:19;101007.88;;;-5.81;61.74
69737;BME280;64476;55.004;73.342;2023-01-27T20:00:34;100966.69;;;-6.08;61.71
69737;BME280;64476;55.004;73.342;2023-01-27T20:03:41;100995.34;;;-5.95;61.67
69737;BME280;64476;55.004;73.342;2023-01-27T20:06:44;100944.00;;;-6.23;61.48
69737;BME280;64476;55.004;73.342;2023-01-27T20:09:45;101026.34;;;-5.68;61.65
69737;BME280;64476;55.004;73.342;2023-01-27T20:13:16;101009.41;;;-5.71;61.84
69737;BME280;64476;55.004;73.342;2023-01-27T20:16:18;100990.91;;;-5.82;61.50
69737;BME280;64476;55.004;73.342;2023-01-27T20:19:31;100957.25;;;-5.96;61.20
69737;BME280;64476;55.004;73.342;2023-01-27T20:22:33;100916.84;;;-6.18;61.43
69737;BME280;64476;55.004;73.342;2023-01-27T20:25:36;100965.72;;;-5.97;61.29
69737;BME280;64476;55.004;73.342;2023-01-27T20:28:38;100987.38;;;-5.72;61.65
69737;BME280;64476;55.004;73.342;2023-01-27T20:31:40;100991.59;;;-5.71;61.61
69737;BME280;64476;55.004;73.342;2023-01-27T20:34:48;100985.56;;;-5.64;61.49
69737;BME280;64476;55.004;73.342;2023-01-27T20:37:55;100877.09;;;-6.22;61.14
69737;BME280;64476;55.004;73.342;2023-01-27T20:40:56;100976.22;;;-5.62;60.97
69737;BME280;64476;55.004;73.342;2023-01-27T20:43:58;100997.31;;;-5.52;60.43
69737;BME280;64476;55.004;73.342;2023-01-27T20:47:03;100981.19;;;-5.52;60.71
69737;BME280;64476;55.004;73.342;2023-01-27T20:50:05;100997.25;;;-5.47;60.75
69737;BME280;64476;55.004;73.342;2023-01-27T20:53:13;100954.22;;;-5.64;60.44
69737;BME280;64476;55.004;73.342;2023-01-27T20:56:21;100988.81;;;-5.52;60.40
69737;BME280;64476;55.004;73.342;2023-01-27T20:59:23;100967.56;;;-5.50;60.82
69737;BME280;64476;55.004;73.342;2023-01-27T21:02:25;100983.72;;;-5.52;60.32
69737;BME280;64476;55.004;73.342;2023-01-27T21:05:35;100932.50;;;-5.87;60.25
69737;BME280;64476;55.004;73.342;2023-01-27T21:08:43;100968.56;;;-5.59;60.04
69737;BME280;64476;55.004;73.342;2023-01-27T21:11:50;100919.59;;;-5.73;59.65
69737;BME280;64476;55.004;73.342;2023-01-27T21:14:51;100964.06;;;-5.41;60.10
69737;BME280;64476;55.004;73.342;2023-01-27T21:17:53;100980.09;;;-5.38;59.60
69737;BME280;64476;55.004;73.342;2023-01-27T21:20:55;100937.25;;;-5.62;59.88
69737;BME280;64476;55.004;73.342;2023-01-27T21:23:59;100871.50;;;-5.90;59.27
69737;BME280;64476;55.004;73.342;2023-01-27T21:27:02;100941.25;;;-5.49;59.88
69737;BME280;64476;55.004;73.342;2023-01-27T21:30:03;100944.63;;;-5.47;59.72
69737;BME280;64476;55.004;73.342;2023-01-27T21:33:05;100955.59;;;-5.43;59.57
69737;BME280;64476;55.004;73.342;2023-01-27T21:36:08;100917.56;;;-5.52;59.67
69737;BME280;64476;55.004;73.342;2023-01-27T21:42:55;100967.88;;;-5.14;58.46
69737;BME280;64476;55.004;73.342;2023-01-27T21:46:03;100965.53;;;-5.26;59.01
69737;BME280;64476;55.004;73.342;2023-01-27T21:49:04;100827.66;;;-6.02;58.53
69737;BME280;64476;55.004;73.342;2023-01-27T21:52:06;100932.41;;;-5.25;58.27
69737;BME280;64476;55.004;73.342;2023-01-27T21:55:11;100878.66;;;-5.57;58.20
69737;BME280;64476;55.004;73.342;2023-01-27T21:58:16;100976.28;;;-5.07;58.59
69737;BME280;64476;55.004;73.342;2023-01-27T22:01:28;100965.16;;;-5.05;58.37
69737;BME280;64476;55.004;73.342;2023-01-27T22:04:30;100960.03;;;-5.00;58.41
69737;BME280;64476;55.004;73.342;2023-01-27T22:07:36;100966.69;;;-4.93;58.04
69737;BME280;64476;55.004;73.342;2023-01-27T22:10:41;100968.47;;;-4.98;58.10
69737;BME280;64476;55.004;73.342;2023-01-27T22:13:43;100918.19;;;-5.37;58.40
69737;BME280;64476;55.004;73.342;2023-01-27T22:16:55;100953.28;;;-5.03;58.20
69737;BME280;64476;55.004;73.342;2023-01-27T22:20:12;100899.03;;;-5.59;58.52
69737;BME280;64476;55.004;73.342;2023-01-27T22:23:19;100957.72;;;-5.16;58.50
69737;BME280;64476;55.004;73.342;2023-01-27T22:26:26;100956.91;;;-5.19;58.78
69737;BME280;64476;55.004;73.342;2023-01-27T22:29:32;100951.78;;;-5.15;58.50
69737;BME280;64476;55.004;73.342;2023-01-27T22:32:39;100940.81;;;-5.18;58.90
69737;BME280;64476;55.004;73.342;2023-01-27T22:36:00;100949.31;;;-5.21;58.89
69737;BME280;64476;55.004;73.342;2023-01-27T22:39:03;100912.47;;;-5.52;59.17
69737;BME280;64476;55.004;73.342;2023-01-27T22:42:04;100953.66;;;-5.27;59.88
69737;BME280;64476;55.004;73.342;2023-01-27T22:45:07;100951.22;;;-5.33;59.76
69737;BME280;64476;55.004;73.342;2023-01-27T22:48:42;100935.06;;;-5.31;59.78
69737;BME280;64476;55.004;73.342;2023-01-27T22:51:47;100891.28;;;-5.53;59.27
69737;BME280;64476;55.004;73.342;2023-01-27T22:54:59;100939.13;;;-5.21;59.89
69737;BME280;64476;55.004;73.342;2023-01-27T22:58:00;100795.38;;;-5.96;59.87
69737;BME280;64476;55.004;73.342;2023-01-27T23:01:06;100932.16;;;-5.10;60.17
69737;BME280;64476;55.004;73.342;2023-01-27T23:04:10;100929.59;;;-5.10;59.58
69737;BME280;64476;55.004;73.342;2023-01-27T23:07:21;100837.91;;;-5.54;60.28
69737;BME280;64476;55.004;73.342;2023-01-27T23:10:22;100874.13;;;-5.40;60.63
69737;BME280;64476;55.004;73.342;2023-01-27T23:13:24;100877.44;;;-5.35;60.39
69737;BME280;64476;55.004;73.342;2023-01-27T23:16:25;100929.69;;;-5.16;60.48
69737;BME280;64476;55.004;73.342;2023-01-27T23:19:36;100870.63;;;-5.35;60.55
69737;BME280;64476;55.004;73.342;2023-01-27T23:22:38;100887.53;;;-5.30;60.43
69737;BME280;64476;55.004;73.342;2023-01-27T23:25:41;100809.47;;;-5.78;60.78
69737;BME280;64476;55.004;73.342;2023-01-27T23:28:48;100869.19;;;-5.49;60.94
69737;BME280;64476;55.004;73.342;2023-01-27T23:32:00;100814.44;;;-5.72;60.46
69737;BME280;64476;55.004;73.342;2023-01-27T23:35:03;100842.75;;;-5.41;60.43
69737;BME280;64476;55.004;73.342;2023-01-27T23:38:05;100892.28;;;-5.11;60.54
69737;BME280;64476;55.004;73.342;2023-01-27T23:41:10;100845.22;;;-5.36;60.39
69737;BME280;64476;55.004;73.342;2023-01-27T23:44:20;100886.31;;;-5.10;61.30
69737;BME280;64476;55.004;73.342;2023-01-27T23:50:35;100731.66;;;-5.90;61.02
69737;BME280;64476;55.004;73.342;2023-01-27T23:53:36;100883.59;;;-4.99;60.90
69737;BME280;64476;55.004;73.342;2023-01-27T23:56:38;100838.81;;;-5.11;60.43
69737;BME280;64476;55.004;73.342;2023-01-27T23:59:47;100871.50;;;-4.88;61.29
